Time;durP1;ratioP1;P1;durP2;ratioP2;P2;SDS_P1;SDS_P2;PMS_P1;PMS_P2;Temp;Humidity;BMP_temperature;BMP_pressure;BME280_temperature;BME280_humidity;BME280_pressure;Samples;Min_cycle;Max_cycle;Signal;HPM_P1;HPM_P2
2023/09/08 00:01:13;;;;;;;0.85;0.50;;;;;;;18.98;80.46;95113.63;4991843;28;20213;-78
2023/09/08 00:03:40;;;;;;;0.52;0.52;;;;;;;18.97;80.74;95123.00;4991524;28;20209;-78
2023/09/08 00:06:07;;;;;;;0.38;0.38;;;;;;;18.89;81.08;95107.56;4991816;28;20217;-77
2023/09/08 00:08:35;;;;;;;0.35;0.35;;;;;;;18.86;80.92;95122.03;4991993;28;20268;-78
2023/09/08 00:11:01;;;;;;;0.30;0.30;;;;;;;18.82;81.64;95110.22;4991665;28;20205;-77
2023/09/08 00:13:28;;;;;;;0.50;0.50;;;;;;;18.79;80.83;95102.72;4991490;28;20348;-77
2023/09/08 00:15:55;;;;;;;0.85;0.38;;;;;;;18.78;79.65;95109.34;4991856;28;20566;-78
2023/09/08 00:18:22;;;;;;;0.10;0.10;;;;;;;18.78;78.92;95104.66;4991745;28;20238;-78
2023/09/08 00:20:49;;;;;;;0.85;0.85;;;;;;;18.81;75.60;95097.66;4995578;28;20287;-77
2023/09/08 00:23:16;;;;;;;0.17;0.17;;;;;;;18.86;75.35;95091.81;4996377;28;20205;-78
2023/09/08 00:25:44;;;;;;;0.30;0.30;;;;;;;18.87;73.88;95104.41;4995317;28;20220;-78
2023/09/08 00:28:11;;;;;;;0.20;0.20;;;;;;;18.85;73.48;95098.50;4995933;28;20209;-78
2023/09/08 00:30:38;;;;;;;0.43;0.43;;;;;;;18.86;73.12;95094.56;4996120;28;20229;-79
2023/09/08 00:33:08;;;;;;;0.20;0.20;;;;;;;18.89;73.21;95096.59;4995550;28;20197;-78
2023/09/08 00:35:35;;;;;;;0.30;0.30;;;;;;;18.87;72.67;95096.16;4996082;28;20678;-78
2023/09/08 00:38:02;;;;;;;0.70;0.35;;;;;;;18.87;72.86;95095.38;4995534;28;20210;-78
2023/09/08 00:43:53;;;;;;;0.20;0.20;;;;;;;18.81;72.94;95094.91;4991561;28;20221;-78
2023/09/08 00:46:20;;;;;;;0.32;0.32;;;;;;;18.70;73.64;95091.22;4995422;28;20212;-78
2023/09/08 00:48:47;;;;;;;0.95;0.47;;;;;;;18.70;73.43;95097.50;4995016;28;20210;-79
2023/09/08 00:51:14;;;;;;;0.45;0.45;;;;;;;18.68;73.95;95088.03;4995347;28;20301;-78
2023/09/08 00:53:41;;;;;;;1.15;0.25;;;;;;;18.65;74.23;95094.25;4995406;28;20228;-78
2023/09/08 00:56:10;;;;;;;0.30;0.30;;;;;;;18.62;74.28;95084.00;4994786;28;20213;-78
2023/09/08 00:58:37;;;;;;;0.20;0.20;;;;;;;18.64;73.84;95092.66;4995295;28;20315;-78
2023/09/08 01:01:05;;;;;;;0.10;0.10;;;;;;;18.59;73.71;95084.72;4994531;28;20321;-78
2023/09/08 01:03:32;;;;;;;0.20;0.20;;;;;;;18.55;74.13;95089.34;4995421;28;20208;-78
2023/09/08 01:06:00;;;;;;;0.57;0.57;;;;;;;18.58;72.73;95089.44;4994924;28;20268;-78
2023/09/08 01:08:27;;;;;;;0.20;0.20;;;;;;;18.58;73.59;95083.13;4995016;28;20214;-78
2023/09/08 01:10:54;;;;;;;0.20;0.20;;;;;;;18.62;73.69;95086.75;4994657;28;20429;-78
2023/09/08 01:13:22;;;;;;;1.05;0.38;;;;;;;18.67;72.52;95086.44;4994956;28;20276;-78
2023/09/08 01:15:50;;;;;;;0.10;0.10;;;;;;;18.62;73.60;95084.00;4994507;28;20205;-78
2023/09/08 01:18:17;;;;;;;0.22;0.22;;;;;;;18.52;74.27;95084.59;4994716;28;20252;-78
2023/09/08 01:21:05;;;;;;;0.10;0.10;;;;;;;18.54;74.52;95087.75;4994865;28;20222;-77
2023/09/08 01:23:48;;;;;;;0.15;0.15;;;;;;;18.54;74.51;95085.81;4995038;28;20190;-79
2023/09/08 01:26:21;;;;;;;0.10;0.10;;;;;;;18.51;74.71;95083.00;4994498;28;20598;-77
2023/09/08 01:28:50;;;;;;;0.10;0.10;;;;;;;18.47;74.69;95086.47;4994833;28;20620;-78
2023/09/08 01:31:18;;;;;;;0.10;0.10;;;;;;;18.48;74.72;95090.81;4993310;28;20308;-78
2023/09/08 01:33:46;;;;;;;0.35;0.30;;;;;;;18.46;74.79;95084.09;4994779;28;20206;-79
2023/09/08 01:36:14;;;;;;;0.30;0.30;;;;;;;18.43;74.98;95077.41;4994250;28;20216;-78
2023/09/08 01:38:40;;;;;;;0.10;0.10;;;;;;;18.41;75.20;95078.94;4994399;28;20225;-78
2023/09/08 01:41:07;;;;;;;0.20;0.20;;;;;;;18.40;75.49;95082.84;4993931;28;20279;-78
2023/09/08 01:43:35;;;;;;;0.10;0.10;;;;;;;18.36;75.90;95088.25;4994566;28;20209;-76
2023/09/08 01:46:02;;;;;;;0.20;0.20;;;;;;;18.34;76.16;95074.09;4993972;28;20213;-78
2023/09/08 01:48:29;;;;;;;0.10;0.10;;;;;;;18.33;76.26;95078.00;4994187;28;20260;-77
2023/09/08 01:50:56;;;;;;;0.10;0.10;;;;;;;18.38;75.76;95072.22;4993858;28;20213;-79
2023/09/08 01:53:22;;;;;;;0.25;0.25;;;;;;;18.41;76.06;95063.25;4994323;28;20248;-78
2023/09/08 01:55:49;;;;;;;0.10;0.10;;;;;;;18.32;76.56;95070.94;4994351;28;20202;-79
2023/09/08 01:59:13;;;;;;;0.20;0.20;;;;;;;18.27;76.76;95068.50;4993796;28;20210;-78
2023/09/08 02:01:41;;;;;;;0.10;0.10;;;;;;;18.24;77.49;95073.94;4971063;28;20275;-78
2023/09/08 02:04:08;;;;;;;0.22;0.22;;;;;;;18.12;78.33;95072.16;4993863;28;20209;-79
2023/09/08 02:06:35;;;;;;;0.20;0.20;;;;;;;18.06;78.73;95068.13;4993797;28;20213;-78
2023/09/08 02:09:02;;;;;;;0.20;0.20;;;;;;;18.00;79.47;95069.59;4993722;28;20206;-78
2023/09/08 02:11:28;;;;;;;0.10;0.10;;;;;;;17.97;79.80;95073.06;4994039;28;20545;-78
2023/09/08 02:13:55;;;;;;;0.50;0.50;;;;;;;17.95;79.94;95078.91;4993716;28;20714;-78
2023/09/08 02:16:22;;;;;;;0.10;0.10;;;;;;;18.00;80.00;95075.06;4993245;28;20667;-78
2023/09/08 02:18:51;;;;;;;0.88;0.65;;;;;;;17.97;80.41;95073.84;4994188;28;20272;-78
2023/09/08 02:21:18;;;;;;;0.20;0.20;;;;;;;17.92;80.91;95062.38;4993511;28;20217;-78
2023/09/08 02:23:45;;;;;;;0.20;0.20;;;;;;;17.95;81.02;95056.16;4993827;28;20217;-78
2023/09/08 02:26:12;;;;;;;0.10;0.10;;;;;;;17.92;81.14;95062.38;4993269;28;20209;-78
2023/09/08 02:28:38;;;;;;;0.20;0.20;;;;;;;17.90;81.34;95059.22;4993791;28;20220;-78
2023/09/08 02:31:05;;;;;;;0.40;0.40;;;;;;;17.83;81.73;95053.59;4993255;28;20260;-78
2023/09/08 02:33:32;;;;;;;0.30;0.30;;;;;;;17.84;81.76;95052.44;4994006;28;20284;-78
2023/09/08 02:36:04;;;;;;;0.40;0.40;;;;;;;17.80;82.15;95051.56;4993378;28;20643;-78
2023/09/08 02:38:31;;;;;;;0.20;0.20;;;;;;;17.72;82.72;95054.19;4993453;28;20210;-78
2023/09/08 02:40:58;;;;;;;0.35;0.15;;;;;;;17.69;83.16;95048.63;4992988;28;20698;-78
2023/09/08 02:43:25;;;;;;;0.30;0.30;;;;;;;17.66;83.50;95055.63;4992930;28;20217;-78
2023/09/08 02:45:52;;;;;;;0.20;0.20;;;;;;;17.60;84.42;95051.59;4993127;28;20205;-78
2023/09/08 02:48:19;;;;;;;0.60;0.60;;;;;;;17.55;85.18;95054.59;4993034;28;20206;-78
2023/09/08 02:50:45;;;;;;;0.10;0.10;;;;;;;17.56;85.99;95058.94;4993309;28;20605;-77
2023/09/08 02:53:14;;;;;;;0.30;0.30;;;;;;;17.59;86.63;95060.97;4993263;28;20599;-77
2023/09/08 02:55:40;;;;;;;0.13;0.13;;;;;;;17.52;87.26;95054.53;4992967;28;20204;-78
2023/09/08 02:58:07;;;;;;;0.10;0.10;;;;;;;17.46;88.00;95051.31;4992814;28;20201;-78
2023/09/08 03:00:34;;;;;;;0.52;0.52;;;;;;;17.42;88.88;95053.16;4992774;28;20229;-78
2023/09/08 03:03:01;;;;;;;0.10;0.10;;;;;;;17.36;89.28;95046.38;4992666;28;20209;-78
2023/09/08 03:05:28;;;;;;;0.10;0.10;;;;;;;17.38;89.61;95057.78;4992775;28;20209;-78
2023/09/08 03:07:54;;;;;;;0.55;0.55;;;;;;;17.32;90.15;95051.81;4992759;28;20213;-79
2023/09/08 03:10:23;;;;;;;0.35;0.35;;;;;;;17.30;90.32;95047.84;4992589;28;20659;-78
2023/09/08 03:12:49;;;;;;;0.22;0.22;;;;;;;17.26;90.81;95046.97;4992699;28;20233;-78
2023/09/08 03:15:16;;;;;;;0.17;0.17;;;;;;;17.25;90.99;95045.38;4992170;28;20213;-78
2023/09/08 03:17:43;;;;;;;0.15;0.15;;;;;;;17.18;91.40;95046.03;4992416;28;20324;-79
2023/09/08 03:20:13;;;;;;;0.38;0.32;;;;;;;17.15;92.17;95046.75;4992386;28;20579;-78
2023/09/08 03:22:40;;;;;;;0.30;0.30;;;;;;;17.07;92.62;95055.16;4992293;28;20197;-78
2023/09/08 03:25:07;;;;;;;0.20;0.20;;;;;;;17.00;93.23;95051.13;4992316;28;20212;-77
2023/09/08 03:27:36;;;;;;;0.20;0.20;;;;;;;16.96;93.67;95052.97;4992403;28;20209;-78
2023/09/08 03:30:04;;;;;;;0.30;0.30;;;;;;;16.89;94.21;95050.09;4991990;28;20205;-75
2023/09/08 03:32:31;;;;;;;0.30;0.30;;;;;;;16.87;94.74;95057.06;4992757;28;20569;-77
2023/09/08 03:34:58;;;;;;;0.10;0.10;;;;;;;16.77;95.11;95057.63;4992287;28;20206;-78
2023/09/08 03:37:26;;;;;;;0.20;0.20;;;;;;;16.74;95.73;95059.13;4991819;28;20213;-78
2023/09/08 03:39:53;;;;;;;0.15;0.15;;;;;;;16.70;96.19;95063.72;4991945;28;20295;-77
2023/09/08 03:42:19;;;;;;;0.15;0.15;;;;;;;16.61;97.20;95063.09;4974406;28;20206;-78
2023/09/08 03:44:48;;;;;;;0.20;0.20;;;;;;;16.66;97.25;95071.06;4991904;28;20221;-78
2023/09/08 03:47:14;;;;;;;0.10;0.10;;;;;;;16.58;97.42;95067.31;4992078;28;20337;-78
2023/09/08 03:49:41;;;;;;;0.20;0.20;;;;;;;16.53;98.26;95066.81;4991866;28;20201;-78
2023/09/08 03:52:08;;;;;;;0.50;0.50;;;;;;;16.45;98.75;95065.84;4991546;28;20213;-78
2023/09/08 03:54:35;;;;;;;0.32;0.32;;;;;;;16.47;98.88;95060.00;4991648;28;20213;-78
2023/09/08 03:57:02;;;;;;;0.30;0.30;;;;;;;16.42;98.64;95057.53;4992181;28;20213;-79
2023/09/08 03:59:29;;;;;;;0.20;0.20;;;;;;;16.38;99.08;95056.69;4991991;28;20218;-78
2023/09/08 04:01:57;;;;;;;0.20;0.20;;;;;;;16.33;98.71;95060.47;4992026;28;20225;-78
2023/09/08 04:04:24;;;;;;;0.20;0.20;;;;;;;16.30;98.03;95061.94;4991776;28;20285;-78
2023/09/08 04:06:51;;;;;;;0.10;0.10;;;;;;;16.34;98.03;95073.78;4991887;28;20205;-78
2023/09/08 04:09:17;;;;;;;0.20;0.20;;;;;;;16.37;97.86;95066.03;4991614;28;20341;-79
2023/09/08 04:11:44;;;;;;;0.25;0.25;;;;;;;16.38;97.58;95067.63;4992040;28;20213;-78
2023/09/08 04:14:11;;;;;;;0.20;0.20;;;;;;;16.40;97.51;95065.31;4991730;28;20240;-78
2023/09/08 04:16:38;;;;;;;0.10;0.10;;;;;;;16.48;97.36;95067.06;4991515;28;20308;-78
2023/09/08 04:19:06;;;;;;;0.13;0.13;;;;;;;16.63;96.57;95061.63;4991948;28;20232;-79
2023/09/08 04:21:33;;;;;;;0.47;0.47;;;;;;;16.82;95.71;95060.06;4991407;28;20226;-78
2023/09/08 04:24:00;;;;;;;0.15;0.15;;;;;;;17.04;94.89;95059.41;4991702;28;20586;-78
2023/09/08 04:26:27;;;;;;;0.15;0.15;;;;;;;17.17;93.86;95066.34;4991619;28;20241;-79
2023/09/08 04:28:54;;;;;;;0.20;0.20;;;;;;;17.20;93.52;95067.56;4992005;28;20206;-79
2023/09/08 04:31:21;;;;;;;0.70;0.30;;;;;;;17.23;93.69;95070.38;4991453;28;20206;-79
2023/09/08 04:33:48;;;;;;;0.17;0.17;;;;;;;17.21;93.86;95071.91;4991946;28;20208;-79
2023/09/08 04:36:16;;;;;;;0.47;0.47;;;;;;;17.47;93.16;95063.84;4992033;28;20555;-78
2023/09/08 04:38:44;;;;;;;0.10;0.10;;;;;;;18.10;90.93;95063.50;4991817;28;20212;-78
2023/09/08 04:41:11;;;;;;;0.32;0.32;;;;;;;19.05;86.23;95058.78;4991503;28;20233;-79
2023/09/08 04:43:38;;;;;;;0.20;0.20;;;;;;;19.93;81.47;95057.56;4991581;28;20210;-79
2023/09/08 04:46:04;;;;;;;0.20;0.20;;;;;;;20.42;78.67;95060.81;4991690;28;20213;-78
2023/09/08 04:48:31;;;;;;;0.65;0.57;;;;;;;20.71;76.93;95058.31;4991447;28;20217;-79
2023/09/08 04:50:58;;;;;;;0.30;0.30;;;;;;;21.09;75.30;95063.28;4991857;28;20544;-79
2023/09/08 04:53:27;;;;;;;0.20;0.20;;;;;;;21.57;72.78;95054.94;4991726;28;20206;-79
2023/09/08 04:55:54;;;;;;;0.10;0.10;;;;;;;21.61;72.47;95062.00;4991705;28;20218;-79
2023/09/08 04:58:20;;;;;;;1.55;1.10;;;;;;;21.58;72.19;95057.31;4991214;28;20222;-78
2023/09/08 05:00:47;;;;;;;0.25;0.25;;;;;;;21.64;71.68;95057.69;4991508;28;20585;-78
2023/09/08 05:03:14;;;;;;;2.22;1.20;;;;;;;21.78;71.05;95054.22;4991426;28;20228;-77
2023/09/08 05:05:41;;;;;;;6.68;1.38;;;;;;;22.35;68.92;95055.16;4993874;28;20647;-78
2023/09/08 05:08:08;;;;;;;0.80;0.80;;;;;;;22.73;65.98;95050.06;4995403;28;20213;-78
2023/09/08 05:10:36;;;;;;;0.98;0.82;;;;;;;22.90;65.78;95047.31;4994884;28;20213;-79
2023/09/08 05:13:03;;;;;;;1.33;1.20;;;;;;;23.76;63.09;95045.16;4995128;28;20230;-79
2023/09/08 05:15:31;;;;;;;0.75;0.75;;;;;;;23.87;61.56;95048.66;4995090;28;20224;-79
2023/09/08 05:17:57;;;;;;;0.70;0.70;;;;;;;23.79;60.76;95049.88;4994796;28;20311;-79
2023/09/08 05:20:25;;;;;;;2.42;1.00;;;;;;;24.18;60.42;95051.66;4994637;28;20218;-79
2023/09/08 05:22:51;;;;;;;1.10;0.95;;;;;;;24.35;59.51;95045.25;4994953;28;20202;-78
2023/09/08 05:25:18;;;;;;;1.08;0.95;;;;;;;24.29;59.05;95052.41;4994546;28;20213;-77
2023/09/08 05:27:46;;;;;;;1.55;1.02;;;;;;;24.56;58.35;95053.41;4995095;28;20522;-78
2023/09/08 05:30:14;;;;;;;0.85;0.70;;;;;;;23.97;59.68;95047.81;4994708;28;20542;-78
2023/09/08 05:32:40;;;;;;;0.20;0.20;;;;;;;24.65;58.21;95050.97;4994662;28;20659;-79
2023/09/08 05:35:08;;;;;;;1.40;1.30;;;;;;;24.70;57.80;95050.53;4994380;28;20206;-78
2023/09/08 05:37:36;;;;;;;0.10;0.10;;;;;;;25.12;56.91;95054.16;4994947;28;20644;-78
2023/09/08 05:40:04;;;;;;;0.95;0.80;;;;;;;25.47;56.46;95058.56;4993953;28;20590;-79
2023/09/08 05:42:31;;;;;;;1.40;1.13;;;;;;;25.61;55.00;95054.84;4994359;28;20229;-78
2023/09/08 05:44:59;;;;;;;1.10;0.90;;;;;;;26.04;53.41;95058.69;4994768;28;20547;-79
2023/09/08 05:47:26;;;;;;;0.57;0.57;;;;;;;25.95;52.82;95054.88;4994092;28;20259;-78
2023/09/08 05:49:53;;;;;;;0.85;0.68;;;;;;;25.97;51.63;95058.78;4994420;28;20217;-78
2023/09/08 05:52:20;;;;;;;1.00;0.88;;;;;;;25.18;52.16;95066.38;4994330;28;20205;-77
2023/09/08 05:54:46;;;;;;;1.23;1.08;;;;;;;24.36;54.65;95066.22;4994638;28;20209;-78
2023/09/08 05:57:13;;;;;;;1.38;0.90;;;;;;;25.03;52.82;95062.16;4994170;28;20217;-79
2023/09/08 05:59:40;;;;;;;1.42;1.08;;;;;;;25.22;52.75;95063.56;4994126;28;20898;-79
2023/09/08 06:02:08;;;;;;;1.15;0.70;;;;;;;25.58;51.43;95069.53;4993977;28;20230;-79
2023/09/08 06:04:35;;;;;;;1.75;1.10;;;;;;;25.12;52.07;95076.34;4994283;28;20240;-79
2023/09/08 06:07:02;;;;;;;1.50;1.15;;;;;;;24.80;52.76;95077.38;4994170;28;20213;-78
2023/09/08 06:09:29;;;;;;;1.05;0.60;;;;;;;24.69;52.79;95065.59;4994079;28;20225;-78
2023/09/08 06:11:55;;;;;;;1.33;1.00;;;;;;;25.81;50.80;95073.28;4994384;28;20571;-80
2023/09/08 06:14:23;;;;;;;2.08;1.38;;;;;;;25.39;50.13;95068.97;4993692;28;20226;-77
2023/09/08 06:16:49;;;;;;;0.63;0.63;;;;;;;25.55;49.72;95064.84;4993126;28;20244;-78
2023/09/08 06:19:19;;;;;;;1.10;0.98;;;;;;;26.18;48.77;95064.06;4993814;28;20547;-78
2023/09/08 06:21:46;;;;;;;0.90;0.68;;;;;;;26.07;48.57;95062.63;4993373;28;20222;-77
2023/09/08 06:24:12;;;;;;;1.25;0.80;;;;;;;26.14;48.88;95068.88;4994027;28;20224;-78
2023/09/08 06:26:39;;;;;;;1.50;0.93;;;;;;;25.75;48.18;95074.13;4993805;28;20209;-79
2023/09/08 06:29:06;;;;;;;0.85;0.70;;;;;;;25.28;48.43;95079.38;4994131;28;20209;-78
2023/09/08 06:31:33;;;;;;;0.73;0.70;;;;;;;25.70;47.19;95082.91;4993243;28;20237;-79
2023/09/08 06:34:00;;;;;;;0.77;0.70;;;;;;;25.84;46.20;95085.53;4993952;28;20576;-79
2023/09/08 06:36:28;;;;;;;3.67;0.60;;;;;;;26.01;46.60;95087.28;4993380;28;20206;-78
2023/09/08 06:38:55;;;;;;;0.70;0.70;;;;;;;26.16;45.49;95099.81;4993629;28;20209;-79
2023/09/08 06:41:22;;;;;;;1.27;0.82;;;;;;;26.05;44.58;95088.06;4993196;28;20225;-77
2023/09/08 06:43:49;;;;;;;1.48;0.95;;;;;;;26.06;44.91;95089.63;4993675;28;20298;-78
2023/09/08 06:46:16;;;;;;;0.50;0.50;;;;;;;25.79;44.94;95097.09;4993525;28;20209;-79
2023/09/08 06:48:43;;;;;;;0.40;0.40;;;;;;;25.92;44.35;95089.81;4992989;28;20290;-78
2023/09/08 06:51:10;;;;;;;0.50;0.50;;;;;;;25.42;45.77;95095.84;4993213;28;20202;-77
2023/09/08 06:53:38;;;;;;;0.90;0.90;;;;;;;26.07;44.25;95091.19;4993224;28;20567;-79
2023/09/08 06:56:05;;;;;;;0.73;0.73;;;;;;;26.61;44.25;95091.28;4993194;28;20630;-79
2023/09/08 06:58:32;;;;;;;0.45;0.38;;;;;;;27.04;42.45;95087.88;4993299;28;20276;-78
2023/09/08 07:00:59;;;;;;;0.60;0.60;;;;;;;26.69;43.11;95101.06;4992904;28;20209;-79
2023/09/08 07:03:27;;;;;;;0.32;0.32;;;;;;;27.02;42.74;95079.94;4993527;28;20201;-79
2023/09/08 07:05:53;;;;;;;0.63;0.50;;;;;;;26.41;43.53;95098.72;4992845;28;20201;-76
2023/09/08 07:08:20;;;;;;;0.52;0.47;;;;;;;25.99;44.73;95103.59;4993160;28;20653;-79
2023/09/08 07:10:53;;;;;;;0.70;0.52;;;;;;;25.62;44.60;95086.97;4992697;28;20217;-78
2023/09/08 07:13:20;;;;;;;0.68;0.68;;;;;;;25.67;44.43;95094.84;4993090;28;20229;-79
2023/09/08 07:15:48;;;;;;;0.57;0.57;;;;;;;25.89;43.96;95098.94;4992554;28;20202;-79
2023/09/08 07:18:14;;;;;;;0.88;0.63;;;;;;;24.77;45.63;95105.13;4992708;28;20233;-78
2023/09/08 07:20:41;;;;;;;2.60;1.15;;;;;;;24.78;46.27;95085.31;4992155;28;20217;-77
2023/09/08 07:23:08;;;;;;;0.40;0.40;;;;;;;25.56;45.94;95094.16;4992973;28;20225;-78
2023/09/08 07:25:35;;;;;;;0.57;0.52;;;;;;;25.14;45.00;95101.69;4992418;28;20213;-79
2023/09/08 07:28:04;;;;;;;0.60;0.50;;;;;;;24.84;46.70;95087.66;4991985;28;20205;-79
2023/09/08 07:30:33;;;;;;;1.33;0.85;;;;;;;24.67;46.59;95084.59;4992610;28;20209;-77
2023/09/08 07:33:00;;;;;;;0.65;0.65;;;;;;;24.79;46.61;95086.88;4992879;28;20213;-79
2023/09/08 07:35:27;;;;;;;0.40;0.40;;;;;;;24.32;46.71;95079.31;4992579;28;20232;-78
2023/09/08 07:37:53;;;;;;;0.50;0.50;;;;;;;24.80;46.96;95085.69;4992445;28;20685;-78
2023/09/08 07:40:21;;;;;;;1.00;0.80;;;;;;;25.02;46.64;95071.66;4992272;28;20214;-77
2023/09/08 07:42:48;;;;;;;0.88;0.70;;;;;;;25.33;45.97;95080.91;4992145;28;20230;-79
2023/09/08 07:45:17;;;;;;;0.70;0.60;;;;;;;25.72;45.73;95080.50;4992459;28;20220;-78
2023/09/08 07:47:45;;;;;;;1.23;0.70;;;;;;;25.44;45.64;95076.03;4991924;28;20213;-78
2023/09/08 07:50:20;;;;;;;0.50;0.50;;;;;;;25.08;45.66;95081.13;4992009;28;20332;-78
2023/09/08 07:52:47;;;;;;;0.40;0.40;;;;;;;25.33;45.59;95070.59;4991930;28;20294;-78
2023/09/08 07:55:14;;;;;;;1.33;0.90;;;;;;;24.79;46.79;95080.56;4992298;28;20316;-77
2023/09/08 07:57:42;;;;;;;1.27;0.73;;;;;;;24.31;47.68;95075.75;4991839;28;20216;-77
2023/09/08 08:00:11;;;;;;;1.25;0.77;;;;;;;24.00;49.54;95088.53;4992072;28;20205;-78
2023/09/08 08:02:43;;;;;;;0.70;0.60;;;;;;;23.49;49.73;95082.78;4991848;28;20231;-79
2023/09/08 08:05:10;;;;;;;0.88;0.68;;;;;;;23.67;50.18;95077.97;4992093;28;20198;-77
2023/09/08 08:07:38;;;;;;;0.95;0.65;;;;;;;23.94;48.44;95070.75;4991597;28;20210;-77
2023/09/08 08:10:06;;;;;;;2.92;0.90;;;;;;;24.14;49.17;95081.34;4992148;28;20206;-78
2023/09/08 08:12:33;;;;;;;0.82;0.60;;;;;;;24.51;48.43;95080.75;4992171;28;20303;-79
2023/09/08 08:15:00;;;;;;;0.80;0.68;;;;;;;24.83;46.61;95066.66;4991755;28;20217;-79
2023/09/08 08:17:27;;;;;;;0.73;0.50;;;;;;;25.37;46.85;95071.34;4991616;28;20237;-78
2023/09/08 08:19:58;;;;;;;0.70;0.63;;;;;;;25.38;46.10;95067.38;4991770;28;20216;-79
2023/09/08 08:22:25;;;;;;;0.82;0.82;;;;;;;24.97;46.30;95063.81;4991551;28;20228;-80
2023/09/08 08:24:52;;;;;;;0.60;0.60;;;;;;;25.04;46.04;95063.72;4992131;28;20201;-78
2023/09/08 08:27:18;;;;;;;0.60;0.60;;;;;;;25.78;44.86;95062.22;4991723;28;20248;-78
2023/09/08 08:29:45;;;;;;;1.35;0.80;;;;;;;26.06;44.04;95072.97;4991587;28;20322;-78
2023/09/08 08:32:12;;;;;;;1.08;0.55;;;;;;;26.25;43.64;95062.38;4991731;28;20213;-78
2023/09/08 08:34:40;;;;;;;2.13;0.90;;;;;;;25.72;43.04;95056.31;4991745;28;20292;-79
2023/09/08 08:37:08;;;;;;;0.60;0.47;;;;;;;26.25;43.54;95065.94;4992011;28;20205;-78
2023/09/08 08:39:35;;;;;;;0.60;0.57;;;;;;;26.46;42.61;95056.56;4992495;28;20681;-78
2023/09/08 08:42:08;;;;;;;0.63;0.43;;;;;;;25.86;41.76;95052.56;4995487;28;20237;-78
2023/09/08 08:44:36;;;;;;;0.75;0.70;;;;;;;25.70;43.28;95055.16;4995898;28;20706;-77
2023/09/08 08:47:03;;;;;;;0.30;0.30;;;;;;;25.89;43.54;95057.31;4995427;28;20209;-77
2023/09/08 08:49:32;;;;;;;1.00;0.70;;;;;;;26.26;42.57;95048.06;4995402;28;20210;-78
2023/09/08 08:52:03;;;;;;;1.00;0.63;;;;;;;25.71;42.22;95053.94;4995363;28;20663;-78
2023/09/08 08:54:32;;;;;;;0.65;0.65;;;;;;;26.17;42.87;95054.16;4995535;28;20296;-78
2023/09/08 08:57:00;;;;;;;0.70;0.70;;;;;;;26.08;41.43;95042.78;4995324;28;20240;-76
2023/09/08 08:59:31;;;;;;;0.50;0.50;;;;;;;25.94;42.73;95047.75;4995662;28;20205;-79
2023/09/08 09:01:59;;;;;;;0.60;0.60;;;;;;;25.88;42.89;95041.84;4995055;28;20301;-77
2023/09/08 09:04:27;;;;;;;0.40;0.40;;;;;;;26.05;42.63;95048.38;4995831;28;20209;-79
2023/09/08 09:06:54;;;;;;;0.70;0.60;;;;;;;26.38;42.34;95047.53;4994893;28;20198;-78
2023/09/08 09:09:23;;;;;;;1.13;0.68;;;;;;;27.12;41.96;95037.25;4995532;28;20209;-79
2023/09/08 09:11:52;;;;;;;0.85;0.75;;;;;;;26.95;41.03;95043.09;4995227;28;20201;-77
2023/09/08 09:14:19;;;;;;;0.70;0.70;;;;;;;26.52;40.99;95046.53;4995650;28;20236;-79
2023/09/08 09:16:47;;;;;;;0.82;0.63;;;;;;;26.58;41.06;95038.53;4994927;28;20308;-76
2023/09/08 09:19:25;;;;;;;0.50;0.50;;;;;;;26.59;40.83;95040.09;4995518;28;20194;-78
2023/09/08 09:21:54;;;;;;;0.60;0.50;;;;;;;26.98;41.34;95037.50;4994764;28;20237;-76
2023/09/08 09:24:32;;;;;;;0.40;0.40;;;;;;;26.30;42.12;95048.06;4995333;28;20218;-79
2023/09/08 09:27:01;;;;;;;0.77;0.73;;;;;;;26.19;42.21;95043.41;4994513;28;20209;-77
2023/09/08 09:29:29;;;;;;;1.52;1.30;;;;;;;26.37;42.18;95037.66;4994800;28;20700;-78
2023/09/08 09:31:57;;;;;;;1.17;0.80;;;;;;;25.97;42.25;95035.81;4994833;28;20210;-76
2023/09/08 09:34:25;;;;;;;0.75;0.68;;;;;;;25.91;41.71;95032.69;4994697;28;20210;-78
2023/09/08 09:36:52;;;;;;;0.65;0.65;;;;;;;26.04;41.96;95025.38;4994956;28;20663;-78
2023/09/08 09:39:20;;;;;;;0.52;0.52;;;;;;;26.27;41.35;95037.75;4994455;28;20202;-78
2023/09/08 09:41:47;;;;;;;1.77;0.88;;;;;;;26.19;41.68;95023.97;4994799;28;20289;-78
2023/09/08 09:44:15;;;;;;;1.85;0.93;;;;;;;26.74;41.35;95033.91;4994907;28;20210;-77
2023/09/08 09:46:45;;;;;;;1.17;0.80;;;;;;;26.81;41.01;95017.09;4994701;28;20618;-78
2023/09/08 09:49:13;;;;;;;1.48;0.57;;;;;;;26.59;42.03;95021.44;4994333;28;20221;-79
2023/09/08 09:51:43;;;;;;;0.70;0.63;;;;;;;26.26;41.28;95034.19;4993547;28;20252;-80
2023/09/08 09:54:10;;;;;;;0.68;0.68;;;;;;;25.60;42.76;95031.06;4994334;28;20560;-76
2023/09/08 09:56:39;;;;;;;1.08;0.70;;;;;;;25.45;43.26;95034.00;4994442;28;20538;-80
2023/09/08 09:59:09;;;;;;;0.50;0.50;;;;;;;25.64;42.53;95029.06;4994403;28;20252;-79
2023/09/08 10:01:38;;;;;;;1.60;0.63;;;;;;;25.58;43.04;95031.47;4994416;28;20232;-79
2023/09/08 10:04:06;;;;;;;0.47;0.43;;;;;;;25.72;43.11;95025.00;4994252;28;20593;-79
2023/09/08 10:06:33;;;;;;;0.75;0.52;;;;;;;25.71;43.24;95023.41;4994403;28;20583;-78
2023/09/08 10:09:04;;;;;;;1.67;0.70;;;;;;;25.71;43.78;95028.97;4993808;28;20289;-79
2023/09/08 10:11:35;;;;;;;0.95;0.55;;;;;;;25.28;43.47;95012.81;4994336;28;20205;-77
2023/09/08 10:14:03;;;;;;;0.57;0.52;;;;;;;25.31;43.39;95022.28;4994074;28;20706;-79
2023/09/08 10:16:37;;;;;;;0.80;0.60;;;;;;;25.50;42.81;95016.91;4993802;28;20260;-79
2023/09/08 10:19:08;;;;;;;0.50;0.50;;;;;;;25.78;42.11;95012.25;4993762;28;20622;-75
2023/09/08 10:21:40;;;;;;;0.82;0.60;;;;;;;25.65;42.71;95006.47;4993843;28;20277;-78
2023/09/08 10:24:22;;;;;;;0.60;0.60;;;;;;;25.96;43.04;95007.25;4993678;28;20206;-78
2023/09/08 10:27:05;;;;;;;1.02;0.77;;;;;;;25.67;42.91;95009.59;4994224;28;20213;-80
2023/09/08 10:29:34;;;;;;;0.55;0.55;;;;;;;25.10;43.97;95007.44;4993963;28;20225;-81
2023/09/08 10:32:03;;;;;;;0.93;0.80;;;;;;;24.91;44.41;95005.22;4993569;28;20272;-79
2023/09/08 10:34:31;;;;;;;1.38;0.60;;;;;;;24.83;44.97;95009.25;4993675;28;20201;-79
2023/09/08 10:36:58;;;;;;;1.38;1.00;;;;;;;24.77;45.29;95008.91;4993363;28;20702;-77
2023/09/08 10:39:30;;;;;;;0.60;0.60;;;;;;;24.41;47.06;95004.84;4993373;28;20583;-79
2023/09/08 10:42:28;;;;;;;0.90;0.80;;;;;;;24.51;46.95;95003.97;4993386;28;20333;-77
2023/09/08 10:45:04;;;;;;;3.30;0.85;;;;;;;24.15;47.88;95002.63;4993901;28;20194;-78
2023/09/08 10:47:56;;;;;;;0.85;0.70;;;;;;;24.33;46.90;95012.41;4993403;28;20197;-77
2023/09/08 10:50:30;;;;;;;1.02;0.68;;;;;;;24.61;46.23;95014.19;4993579;28;20543;-78
2023/09/08 10:53:14;;;;;;;0.80;0.80;;;;;;;24.99;45.95;95030.94;4993318;28;20205;-79
2023/09/08 10:55:42;;;;;;;0.85;0.80;;;;;;;24.50;46.98;95007.16;4990124;28;20209;-78
2023/09/08 10:58:11;;;;;;;1.67;0.90;;;;;;;24.55;46.93;95004.75;4993192;28;20207;-79
2023/09/08 11:00:46;;;;;;;1.13;0.47;;;;;;;24.37;47.83;95009.63;4992986;28;20233;-78
2023/09/08 11:03:15;;;;;;;0.55;0.55;;;;;;;24.49;48.13;95003.59;4992843;28;20235;-78
2023/09/08 11:05:45;;;;;;;0.95;0.70;;;;;;;24.69;47.14;95003.84;4993022;28;20292;-78
2023/09/08 11:08:14;;;;;;;0.75;0.68;;;;;;;24.54;47.47;94992.09;4992592;28;20217;-79
2023/09/08 11:10:41;;;;;;;0.65;0.50;;;;;;;24.36;47.71;94991.44;4992891;28;20205;-77
2023/09/08 11:13:08;;;;;;;0.93;0.68;;;;;;;24.30;49.06;95009.69;4992987;28;20627;-79
2023/09/08 11:15:35;;;;;;;0.50;0.50;;;;;;;24.09;48.86;95022.44;4992971;28;20589;-78
2023/09/08 11:18:08;;;;;;;0.70;0.70;;;;;;;24.00;49.50;94996.41;4992394;28;20246;-78
2023/09/08 11:20:36;;;;;;;0.40;0.40;;;;;;;24.26;48.79;94992.31;4992584;28;20260;-78
2023/09/08 11:23:04;;;;;;;0.80;0.50;;;;;;;24.17;48.74;94995.50;4992839;28;20710;-79
2023/09/08 11:25:33;;;;;;;0.90;0.60;;;;;;;23.95;48.94;94986.53;4992742;28;20213;-78
2023/09/08 11:28:00;;;;;;;0.77;0.77;;;;;;;24.41;48.97;94980.72;4992363;28;20209;-78
2023/09/08 11:30:27;;;;;;;0.28;0.28;;;;;;;24.70;47.98;94984.03;4992716;28;20232;-78
2023/09/08 11:32:54;;;;;;;0.25;0.25;;;;;;;24.40;48.34;94993.00;4992588;28;20205;-78
2023/09/08 11:35:21;;;;;;;0.13;0.13;;;;;;;24.08;49.32;94992.38;4992356;28;20682;-81
2023/09/08 11:37:51;;;;;;;0.65;0.55;;;;;;;23.93;49.33;94986.16;4992713;28;20206;-77
2023/09/08 11:40:19;;;;;;;1.15;0.70;;;;;;;24.42;48.39;94973.97;4992731;28;20544;-79
2023/09/08 11:42:47;;;;;;;1.17;1.08;;;;;;;24.52;48.12;94983.38;4992503;28;20288;-79